Langtoft, United Kingdom
Current Conditions -  °F | °C
As of 1:50 AM on Monday 26 Jan 2015 (Local Time) from EGXT Reporting Station
Broken Clouds Broken Clouds  
Wind Chill: 42°   Ceiling: 1200
Heat Index: 48°   Visibility: 6mi
Dew Point: 45°   Wind: 15mph
Humidity: 87%   Direction: 240°WSW
Pressure: 30.12"   Gusts: NA
Location:  52.7°N, 0.34°W
Report Text: EGXT 260150Z AUTO 24013KT 9999 BKN012/// BKN210/// 09/07 Q1020 RERA
Loading
Personal Weather Stations






























Interactive Weather Map New forecast layout! Learn more

10-Day Weather Forecast

Advertisements
Track Severe Weather on mobile